sensor_id;sensor_type;location;lat;lon;timestamp;P1;durP1;ratioP1;P2;durP2;ratioP2
17993;SDS011;9122;48.406;9.984;2023-01-28T00:02:33;19.40;;;15.70;;
17993;SDS011;9122;48.406;9.984;2023-01-28T00:05:19;23.37;;;17.43;;
17993;SDS011;9122;48.406;9.984;2023-01-28T00:08:03;23.00;;;17.97;;
17993;SDS011;9122;48.406;9.984;2023-01-28T00:10:48;21.03;;;17.10;;
17993;SDS011;9122;48.406;9.984;2023-01-28T00:13:33;24.87;;;17.30;;
17993;SDS011;9122;48.406;9.984;2023-01-28T00:16:17;23.30;;;17.30;;
17993;SDS011;9122;48.406;9.984;2023-01-28T00:19:01;22.40;;;17.43;;
17993;SDS011;9122;48.406;9.984;2023-01-28T00:21:46;21.17;;;16.40;;
17993;SDS011;9122;48.406;9.984;2023-01-28T00:24:34;22.40;;;16.60;;
17993;SDS011;9122;48.406;9.984;2023-01-28T00:27:18;23.93;;;16.70;;
17993;SDS011;9122;48.406;9.984;2023-01-28T00:30:03;23.50;;;17.40;;
17993;SDS011;9122;48.406;9.984;2023-01-28T00:32:47;22.03;;;16.93;;
17993;SDS011;9122;48.406;9.984;2023-01-28T00:35:32;19.90;;;15.90;;
17993;SDS011;9122;48.406;9.984;2023-01-28T00:38:18;20.77;;;16.00;;
17993;SDS011;9122;48.406;9.984;2023-01-28T00:41:13;19.33;;;14.80;;
17993;SDS011;9122;48.406;9.984;2023-01-28T00:43:59;20.17;;;15.87;;
17993;SDS011;9122;48.406;9.984;2023-01-28T00:46:44;18.77;;;16.37;;
17993;SDS011;9122;48.406;9.984;2023-01-28T00:49:28;21.23;;;15.90;;
17993;SDS011;9122;48.406;9.984;2023-01-28T00:52:13;18.23;;;15.33;;
17993;SDS011;9122;48.406;9.984;2023-01-28T00:54:58;20.67;;;15.73;;
17993;SDS011;9122;48.406;9.984;2023-01-28T00:57:45;20.77;;;15.87;;
17993;SDS011;9122;48.406;9.984;2023-01-28T01:00:29;19.73;;;15.60;;
17993;SDS011;9122;48.406;9.984;2023-01-28T01:03:14;20.03;;;15.60;;
17993;SDS011;9122;48.406;9.984;2023-01-28T01:05:59;21.73;;;15.70;;
17993;SDS011;9122;48.406;9.984;2023-01-28T01:08:43;23.33;;;16.60;;
17993;SDS011;9122;48.406;9.984;2023-01-28T01:11:33;21.20;;;15.23;;
17993;SDS011;9122;48.406;9.984;2023-01-28T01:14:18;18.87;;;15.50;;
17993;SDS011;9122;48.406;9.984;2023-01-28T01:17:02;21.50;;;16.23;;
17993;SDS011;9122;48.406;9.984;2023-01-28T01:19:50;22.57;;;16.13;;
17993;SDS011;9122;48.406;9.984;2023-01-28T01:22:35;20.00;;;16.17;;
17993;SDS011;9122;48.406;9.984;2023-01-28T01:25:19;21.70;;;15.47;;
17993;SDS011;9122;48.406;9.984;2023-01-28T01:28:04;22.27;;;15.37;;
17993;SDS011;9122;48.406;9.984;2023-01-28T01:30:48;19.33;;;14.83;;
17993;SDS011;9122;48.406;9.984;2023-01-28T01:33:33;20.27;;;14.40;;
17993;SDS011;9122;48.406;9.984;2023-01-28T01:36:18;17.73;;;13.97;;
17993;SDS011;9122;48.406;9.984;2023-01-28T01:39:04;20.33;;;15.30;;
17993;SDS011;9122;48.406;9.984;2023-01-28T01:41:49;17.10;;;13.27;;
17993;SDS011;9122;48.406;9.984;2023-01-28T01:47:57;19.30;;;14.77;;
17993;SDS011;9122;48.406;9.984;2023-01-28T01:50:54;19.77;;;14.43;;
17993;SDS011;9122;48.406;9.984;2023-01-28T01:53:44;16.87;;;13.03;;
17993;SDS011;9122;48.406;9.984;2023-01-28T01:56:34;19.70;;;14.50;;
17993;SDS011;9122;48.406;9.984;2023-01-28T01:59:27;18.43;;;13.67;;
17993;SDS011;9122;48.406;9.984;2023-01-28T02:02:15;18.03;;;14.67;;
17993;SDS011;9122;48.406;9.984;2023-01-28T02:05:00;16.87;;;13.57;;
17993;SDS011;9122;48.406;9.984;2023-01-28T02:07:45;18.67;;;14.67;;
17993;SDS011;9122;48.406;9.984;2023-01-28T02:10:30;19.13;;;14.40;;
17993;SDS011;9122;48.406;9.984;2023-01-28T02:13:15;18.03;;;14.30;;
17993;SDS011;9122;48.406;9.984;2023-01-28T02:16:01;17.20;;;13.43;;
17993;SDS011;9122;48.406;9.984;2023-01-28T02:18:50;17.27;;;12.70;;
17993;SDS011;9122;48.406;9.984;2023-01-28T02:21:47;18.53;;;12.93;;
17993;SDS011;9122;48.406;9.984;2023-01-28T02:31:23;18.90;;;13.03;;
17993;SDS011;9122;48.406;9.984;2023-01-28T02:34:37;18.47;;;14.17;;
17993;SDS011;9122;48.406;9.984;2023-01-28T02:40:29;16.87;;;13.93;;
17993;SDS011;9122;48.406;9.984;2023-01-28T02:43:17;16.27;;;12.20;;
17993;SDS011;9122;48.406;9.984;2023-01-28T02:49:28;14.17;;;11.77;;
17993;SDS011;9122;48.406;9.984;2023-01-28T02:55:39;14.17;;;12.17;;
17993;SDS011;9122;48.406;9.984;2023-01-28T02:58:41;15.57;;;12.37;;
17993;SDS011;9122;48.406;9.984;2023-01-28T03:02:13;15.00;;;12.03;;
17993;SDS011;9122;48.406;9.984;2023-01-28T03:05:15;14.63;;;11.80;;
17993;SDS011;9122;48.406;9.984;2023-01-28T03:08:08;17.97;;;12.30;;
17993;SDS011;9122;48.406;9.984;2023-01-28T03:11:13;15.37;;;11.90;;
17993;SDS011;9122;48.406;9.984;2023-01-28T03:14:16;14.97;;;11.90;;
17993;SDS011;9122;48.406;9.984;2023-01-28T03:17:31;17.20;;;13.70;;
17993;SDS011;9122;48.406;9.984;2023-01-28T03:23:59;17.30;;;13.63;;
17993;SDS011;9122;48.406;9.984;2023-01-28T03:30:47;16.80;;;12.53;;
17993;SDS011;9122;48.406;9.984;2023-01-28T03:34:04;15.53;;;11.27;;
17993;SDS011;9122;48.406;9.984;2023-01-28T03:37:08;14.20;;;10.93;;
17993;SDS011;9122;48.406;9.984;2023-01-28T03:39:52;14.93;;;11.03;;
17993;SDS011;9122;48.406;9.984;2023-01-28T03:42:43;14.80;;;11.53;;
17993;SDS011;9122;48.406;9.984;2023-01-28T03:45:28;12.60;;;11.27;;
17993;SDS011;9122;48.406;9.984;2023-01-28T03:48:12;13.80;;;11.53;;
17993;SDS011;9122;48.406;9.984;2023-01-28T03:50:57;12.30;;;10.63;;
17993;SDS011;9122;48.406;9.984;2023-01-28T03:53:43;14.90;;;11.93;;
17993;SDS011;9122;48.406;9.984;2023-01-28T03:56:27;16.07;;;11.13;;
17993;SDS011;9122;48.406;9.984;2023-01-28T03:59:14;13.93;;;11.03;;
17993;SDS011;9122;48.406;9.984;2023-01-28T04:01:59;13.90;;;11.40;;
17993;SDS011;9122;48.406;9.984;2023-01-28T04:04:46;14.70;;;11.77;;
17993;SDS011;9122;48.406;9.984;2023-01-28T04:07:30;14.40;;;11.33;;
17993;SDS011;9122;48.406;9.984;2023-01-28T04:10:17;13.57;;;11.37;;
17993;SDS011;9122;48.406;9.984;2023-01-28T04:13:02;12.90;;;11.13;;
17993;SDS011;9122;48.406;9.984;2023-01-28T04:15:50;16.20;;;12.10;;
17993;SDS011;9122;48.406;9.984;2023-01-28T04:18:34;14.33;;;11.73;;
17993;SDS011;9122;48.406;9.984;2023-01-28T04:21:19;15.20;;;12.50;;
17993;SDS011;9122;48.406;9.984;2023-01-28T04:24:03;12.57;;;10.97;;
17993;SDS011;9122;48.406;9.984;2023-01-28T04:26:48;13.40;;;11.40;;
17993;SDS011;9122;48.406;9.984;2023-01-28T04:29:33;15.30;;;11.33;;
17993;SDS011;9122;48.406;9.984;2023-01-28T04:32:17;13.70;;;12.00;;
17993;SDS011;9122;48.406;9.984;2023-01-28T04:35:02;12.87;;;10.57;;
17993;SDS011;9122;48.406;9.984;2023-01-28T04:37:46;11.93;;;10.70;;
17993;SDS011;9122;48.406;9.984;2023-01-28T04:40:31;14.17;;;11.27;;
17993;SDS011;9122;48.406;9.984;2023-01-28T04:43:15;14.23;;;12.33;;
17993;SDS011;9122;48.406;9.984;2023-01-28T04:46:00;16.47;;;12.67;;
17993;SDS011;9122;48.406;9.984;2023-01-28T04:48:45;15.67;;;13.10;;
17993;SDS011;9122;48.406;9.984;2023-01-28T04:51:29;14.77;;;11.57;;
17993;SDS011;9122;48.406;9.984;2023-01-28T04:54:14;14.87;;;12.77;;
17993;SDS011;9122;48.406;9.984;2023-01-28T04:56:59;14.57;;;11.40;;
17993;SDS011;9122;48.406;9.984;2023-01-28T04:59:43;13.53;;;11.67;;
17993;SDS011;9122;48.406;9.984;2023-01-28T05:02:28;13.53;;;11.60;;
17993;SDS011;9122;48.406;9.984;2023-01-28T05:05:12;15.97;;;12.47;;
17993;SDS011;9122;48.406;9.984;2023-01-28T05:07:57;13.17;;;11.60;;
17993;SDS011;9122;48.406;9.984;2023-01-28T05:10:42;14.03;;;11.83;;
17993;SDS011;9122;48.406;9.984;2023-01-28T05:13:26;14.67;;;12.13;;
17993;SDS011;9122;48.406;9.984;2023-01-28T05:16:11;14.30;;;12.27;;
17993;SDS011;9122;48.406;9.984;2023-01-28T05:18:55;14.47;;;12.40;;
17993;SDS011;9122;48.406;9.984;2023-01-28T05:21:39;17.13;;;13.07;;
17993;SDS011;9122;48.406;9.984;2023-01-28T05:24:24;15.07;;;12.07;;
17993;SDS011;9122;48.406;9.984;2023-01-28T05:27:11;14.00;;;11.57;;
17993;SDS011;9122;48.406;9.984;2023-01-28T05:29:56;16.13;;;12.40;;
17993;SDS011;9122;48.406;9.984;2023-01-28T05:32:40;15.70;;;12.70;;
17993;SDS011;9122;48.406;9.984;2023-01-28T05:35:24;11.53;;;10.30;;
17993;SDS011;9122;48.406;9.984;2023-01-28T05:38:10;13.80;;;11.50;;
17993;SDS011;9122;48.406;9.984;2023-01-28T05:40:54;13.07;;;11.63;;
17993;SDS011;9122;48.406;9.984;2023-01-28T05:43:39;14.60;;;10.90;;
17993;SDS011;9122;48.406;9.984;2023-01-28T05:46:23;14.83;;;11.00;;
17993;SDS011;9122;48.406;9.984;2023-01-28T05:49:07;12.60;;;11.30;;
17993;SDS011;9122;48.406;9.984;2023-01-28T05:52:04;15.07;;;11.70;;
17993;SDS011;9122;48.406;9.984;2023-01-28T05:54:57;13.70;;;11.23;;
17993;SDS011;9122;48.406;9.984;2023-01-28T05:57:45;13.80;;;11.50;;
17993;SDS011;9122;48.406;9.984;2023-01-28T06:00:29;14.77;;;12.43;;
17993;SDS011;9122;48.406;9.984;2023-01-28T06:03:13;13.33;;;11.30;;
17993;SDS011;9122;48.406;9.984;2023-01-28T06:05:57;19.30;;;12.97;;
17993;SDS011;9122;48.406;9.984;2023-01-28T06:08:41;11.83;;;10.37;;
17993;SDS011;9122;48.406;9.984;2023-01-28T06:11:26;13.10;;;11.23;;
17993;SDS011;9122;48.406;9.984;2023-01-28T06:14:10;14.13;;;11.07;;
17993;SDS011;9122;48.406;9.984;2023-01-28T06:16:55;14.93;;;11.97;;
17993;SDS011;9122;48.406;9.984;2023-01-28T06:19:39;15.13;;;11.93;;
17993;SDS011;9122;48.406;9.984;2023-01-28T06:22:24;13.50;;;12.07;;
17993;SDS011;9122;48.406;9.984;2023-01-28T06:25:11;13.73;;;11.93;;
17993;SDS011;9122;48.406;9.984;2023-01-28T06:27:55;16.97;;;12.03;;
17993;SDS011;9122;48.406;9.984;2023-01-28T06:30:40;16.60;;;11.33;;
17993;SDS011;9122;48.406;9.984;2023-01-28T06:33:24;14.53;;;11.57;;
17993;SDS011;9122;48.406;9.984;2023-01-28T06:36:08;15.50;;;12.23;;
17993;SDS011;9122;48.406;9.984;2023-01-28T06:38:53;14.07;;;12.43;;
17993;SDS011;9122;48.406;9.984;2023-01-28T06:41:37;15.47;;;13.07;;
17993;SDS011;9122;48.406;9.984;2023-01-28T06:44:21;18.70;;;12.60;;
17993;SDS011;9122;48.406;9.984;2023-01-28T06:47:06;17.23;;;13.17;;
17993;SDS011;9122;48.406;9.984;2023-01-28T06:49:53;16.67;;;13.63;;
17993;SDS011;9122;48.406;9.984;2023-01-28T06:52:38;16.63;;;13.37;;
17993;SDS011;9122;48.406;9.984;2023-01-28T06:55:23;15.53;;;13.00;;
17993;SDS011;9122;48.406;9.984;2023-01-28T06:58:08;19.57;;;13.93;;
17993;SDS011;9122;48.406;9.984;2023-01-28T07:00:52;19.57;;;14.87;;
17993;SDS011;9122;48.406;9.984;2023-01-28T07:03:36;18.67;;;14.63;;
17993;SDS011;9122;48.406;9.984;2023-01-28T07:06:21;17.80;;;13.57;;
17993;SDS011;9122;48.406;9.984;2023-01-28T07:09:05;18.93;;;14.30;;
17993;SDS011;9122;48.406;9.984;2023-01-28T07:11:50;18.07;;;14.60;;
17993;SDS011;9122;48.406;9.984;2023-01-28T07:14:34;18.00;;;13.67;;
17993;SDS011;9122;48.406;9.984;2023-01-28T07:17:19;17.43;;;13.70;;
17993;SDS011;9122;48.406;9.984;2023-01-28T07:20:04;16.27;;;13.90;;
17993;SDS011;9122;48.406;9.984;2023-01-28T07:22:49;17.27;;;13.60;;
17993;SDS011;9122;48.406;9.984;2023-01-28T07:25:33;19.53;;;14.10;;
17993;SDS011;9122;48.406;9.984;2023-01-28T07:28:17;17.33;;;13.13;;
17993;SDS011;9122;48.406;9.984;2023-01-28T07:31:04;18.47;;;14.77;;
17993;SDS011;9122;48.406;9.984;2023-01-28T07:33:48;22.00;;;15.03;;
17993;SDS011;9122;48.406;9.984;2023-01-28T07:36:32;17.53;;;15.07;;
17993;SDS011;9122;48.406;9.984;2023-01-28T07:39:17;18.87;;;14.40;;
17993;SDS011;9122;48.406;9.984;2023-01-28T07:42:02;21.33;;;15.20;;
17993;SDS011;9122;48.406;9.984;2023-01-28T07:44:47;20.83;;;15.70;;
17993;SDS011;9122;48.406;9.984;2023-01-28T07:47:32;18.57;;;15.07;;
17993;SDS011;9122;48.406;9.984;2023-01-28T07:50:16;22.73;;;16.53;;
17993;SDS011;9122;48.406;9.984;2023-01-28T07:53:05;17.67;;;14.73;;
17993;SDS011;9122;48.406;9.984;2023-01-28T07:55:57;20.73;;;16.07;;
17993;SDS011;9122;48.406;9.984;2023-01-28T07:58:48;22.03;;;16.33;;
17993;SDS011;9122;48.406;9.984;2023-01-28T08:01:32;20.77;;;16.20;;
17993;SDS011;9122;48.406;9.984;2023-01-28T08:04:17;19.27;;;16.00;;
17993;SDS011;9122;48.406;9.984;2023-01-28T08:07:02;25.67;;;18.23;;
17993;SDS011;9122;48.406;9.984;2023-01-28T08:09:46;22.20;;;16.10;;
17993;SDS011;9122;48.406;9.984;2023-01-28T08:12:30;20.07;;;16.77;;
17993;SDS011;9122;48.406;9.984;2023-01-28T08:15:15;20.57;;;14.13;;
17993;SDS011;9122;48.406;9.984;2023-01-28T08:18:00;20.30;;;15.73;;
17993;SDS011;9122;48.406;9.984;2023-01-28T08:20:44;20.43;;;15.13;;
17993;SDS011;9122;48.406;9.984;2023-01-28T08:23:30;21.57;;;16.50;;
17993;SDS011;9122;48.406;9.984;2023-01-28T08:26:17;20.53;;;15.37;;
17993;SDS011;9122;48.406;9.984;2023-01-28T08:29:01;19.20;;;13.83;;
17993;SDS011;9122;48.406;9.984;2023-01-28T08:31:46;19.73;;;14.50;;
17993;SDS011;9122;48.406;9.984;2023-01-28T08:34:30;16.17;;;13.07;;
17993;SDS011;9122;48.406;9.984;2023-01-28T08:37:15;19.10;;;14.40;;
17993;SDS011;9122;48.406;9.984;2023-01-28T08:39:59;17.30;;;13.47;;
17993;SDS011;9122;48.406;9.984;2023-01-28T08:42:51;18.33;;;14.13;;
17993;SDS011;9122;48.406;9.984;2023-01-28T08:45:36;16.17;;;13.50;;
17993;SDS011;9122;48.406;9.984;2023-01-28T08:48:23;18.60;;;14.47;;
17993;SDS011;9122;48.406;9.984;2023-01-28T08:51:07;17.40;;;14.27;;
17993;SDS011;9122;48.406;9.984;2023-01-28T08:53:51;16.60;;;13.80;;
17993;SDS011;9122;48.406;9.984;2023-01-28T08:56:35;18.17;;;14.37;;
17993;SDS011;9122;48.406;9.984;2023-01-28T08:59:21;17.87;;;14.53;;
17993;SDS011;9122;48.406;9.984;2023-01-28T09:02:07;20.80;;;15.67;;
17993;SDS011;9122;48.406;9.984;2023-01-28T09:04:52;20.77;;;16.27;;
17993;SDS011;9122;48.406;9.984;2023-01-28T09:07:37;17.03;;;14.43;;
17993;SDS011;9122;48.406;9.984;2023-01-28T09:10:21;19.00;;;14.93;;
17993;SDS011;9122;48.406;9.984;2023-01-28T09:13:07;16.13;;;13.10;;
17993;SDS011;9122;48.406;9.984;2023-01-28T09:15:53;19.37;;;15.13;;
17993;SDS011;9122;48.406;9.984;2023-01-28T09:18:38;19.27;;;15.23;;
17993;SDS011;9122;48.406;9.984;2023-01-28T09:21:24;15.83;;;12.87;;
17993;SDS011;9122;48.406;9.984;2023-01-28T09:24:11;19.93;;;13.60;;
17993;SDS011;9122;48.406;9.984;2023-01-28T09:26:56;16.63;;;13.20;;
17993;SDS011;9122;48.406;9.984;2023-01-28T09:29:41;16.20;;;12.93;;
17993;SDS011;9122;48.406;9.984;2023-01-28T09:32:25;17.50;;;13.93;;
17993;SDS011;9122;48.406;9.984;2023-01-28T09:35:10;18.60;;;13.00;;
17993;SDS011;9122;48.406;9.984;2023-01-28T09:37:55;16.77;;;13.60;;
17993;SDS011;9122;48.406;9.984;2023-01-28T09:40:41;18.03;;;12.67;;
17993;SDS011;9122;48.406;9.984;2023-01-28T09:46:12;16.73;;;12.50;;
17993;SDS011;9122;48.406;9.984;2023-01-28T09:48:59;14.17;;;11.63;;
17993;SDS011;9122;48.406;9.984;2023-01-28T09:51:56;15.23;;;12.73;;
17993;SDS011;9122;48.406;9.984;2023-01-28T09:54:48;17.33;;;12.63;;
17993;SDS011;9122;48.406;9.984;2023-01-28T09:57:38;13.87;;;11.70;;
17993;SDS011;9122;48.406;9.984;2023-01-28T10:15:43;15.40;;;11.70;;
17993;SDS011;9122;48.406;9.984;2023-01-28T10:18:34;15.27;;;13.03;;
17993;SDS011;9122;48.406;9.984;2023-01-28T10:21:34;14.80;;;12.67;;
17993;SDS011;9122;48.406;9.984;2023-01-28T10:24:33;15.67;;;12.20;;
17993;SDS011;9122;48.406;9.984;2023-01-28T10:27:23;13.80;;;12.23;;
17993;SDS011;9122;48.406;9.984;2023-01-28T10:33:02;14.33;;;11.77;;
17993;SDS011;9122;48.406;9.984;2023-01-28T10:35:47;14.70;;;12.13;;
17993;SDS011;9122;48.406;9.984;2023-01-28T10:38:33;18.50;;;13.90;;
17993;SDS011;9122;48.406;9.984;2023-01-28T10:41:19;15.27;;;12.43;;
17993;SDS011;9122;48.406;9.984;2023-01-28T10:44:05;14.50;;;11.77;;
17993;SDS011;9122;48.406;9.984;2023-01-28T10:46:56;15.17;;;12.33;;
17993;SDS011;9122;48.406;9.984;2023-01-28T10:49:45;13.30;;;11.80;;
17993;SDS011;9122;48.406;9.984;2023-01-28T10:52:34;14.50;;;12.43;;
17993;SDS011;9122;48.406;9.984;2023-01-28T10:55:19;17.60;;;13.17;;
17993;SDS011;9122;48.406;9.984;2023-01-28T10:58:04;14.00;;;11.20;;
17993;SDS011;9122;48.406;9.984;2023-01-28T11:01:05;15.03;;;11.87;;
17993;SDS011;9122;48.406;9.984;2023-01-28T11:03:54;13.40;;;11.50;;
17993;SDS011;9122;48.406;9.984;2023-01-28T11:06:40;15.70;;;11.37;;
17993;SDS011;9122;48.406;9.984;2023-01-28T11:09:35;13.20;;;10.23;;
17993;SDS011;9122;48.406;9.984;2023-01-28T11:15:15;13.83;;;11.00;;
17993;SDS011;9122;48.406;9.984;2023-01-28T11:18:01;15.07;;;12.77;;
17993;SDS011;9122;48.406;9.984;2023-01-28T11:20:53;15.03;;;12.10;;
17993;SDS011;9122;48.406;9.984;2023-01-28T11:26:51;12.23;;;10.73;;
17993;SDS011;9122;48.406;9.984;2023-01-28T11:29:37;13.80;;;11.20;;
17993;SDS011;9122;48.406;9.984;2023-01-28T11:32:24;14.93;;;12.07;;
17993;SDS011;9122;48.406;9.984;2023-01-28T11:35:22;15.20;;;12.33;;
17993;SDS011;9122;48.406;9.984;2023-01-28T11:38:16;13.80;;;11.37;;
17993;SDS011;9122;48.406;9.984;2023-01-28T11:41:02;16.17;;;12.00;;
17993;SDS011;9122;48.406;9.984;2023-01-28T11:43:47;15.07;;;11.97;;
17993;SDS011;9122;48.406;9.984;2023-01-28T12:05:11;13.27;;;10.47;;
17993;SDS011;9122;48.406;9.984;2023-01-28T12:16:37;16.17;;;11.93;;
17993;SDS011;9122;48.406;9.984;2023-01-28T12:26:05;12.47;;;11.00;;
17993;SDS011;9122;48.406;9.984;2023-01-28T12:35:13;13.80;;;11.17;;
17993;SDS011;9122;48.406;9.984;2023-01-28T12:41:04;13.37;;;10.90;;
17993;SDS011;9122;48.406;9.984;2023-01-28T12:44:04;14.17;;;11.87;;
17993;SDS011;9122;48.406;9.984;2023-01-28T12:47:08;15.57;;;12.23;;
17993;SDS011;9122;48.406;9.984;2023-01-28T12:50:01;16.60;;;11.20;;
17993;SDS011;9122;48.406;9.984;2023-01-28T12:53:01;12.37;;;10.73;;
17993;SDS011;9122;48.406;9.984;2023-01-28T12:56:08;13.70;;;11.13;;
17993;SDS011;9122;48.406;9.984;2023-01-28T12:59:02;15.47;;;12.30;;
17993;SDS011;9122;48.406;9.984;2023-01-28T13:04:58;13.73;;;11.40;;
17993;SDS011;9122;48.406;9.984;2023-01-28T13:10:56;13.37;;;11.80;;
17993;SDS011;9122;48.406;9.984;2023-01-28T13:13:44;15.10;;;12.80;;
17993;SDS011;9122;48.406;9.984;2023-01-28T13:16:29;14.73;;;12.00;;
17993;SDS011;9122;48.406;9.984;2023-01-28T13:22:08;14.57;;;11.50;;
17993;SDS011;9122;48.406;9.984;2023-01-28T13:25:17;15.87;;;11.60;;
17993;SDS011;9122;48.406;9.984;2023-01-28T13:28:03;15.10;;;11.77;;
17993;SDS011;9122;48.406;9.984;2023-01-28T13:30:49;13.77;;;11.13;;
17993;SDS011;9122;48.406;9.984;2023-01-28T13:33:35;13.23;;;10.90;;
17993;SDS011;9122;48.406;9.984;2023-01-28T13:39:17;14.63;;;11.87;;
17993;SDS011;9122;48.406;9.984;2023-01-28T13:42:21;14.30;;;11.93;;
17993;SDS011;9122;48.406;9.984;2023-01-28T13:48:05;13.90;;;11.83;;
17993;SDS011;9122;48.406;9.984;2023-01-28T13:51:18;16.40;;;12.47;;
17993;SDS011;9122;48.406;9.984;2023-01-28T13:54:15;15.97;;;12.10;;
17993;SDS011;9122;48.406;9.984;2023-01-28T14:03:03;16.40;;;12.10;;
17993;SDS011;9122;48.406;9.984;2023-01-28T14:09:45;17.03;;;12.63;;
17993;SDS011;9122;48.406;9.984;2023-01-28T14:18:38;14.37;;;11.67;;
17993;SDS011;9122;48.406;9.984;2023-01-28T14:21:26;14.13;;;12.00;;
17993;SDS011;9122;48.406;9.984;2023-01-28T14:24:15;18.90;;;12.10;;
17993;SDS011;9122;48.406;9.984;2023-01-28T14:27:04;15.67;;;12.40;;
17993;SDS011;9122;48.406;9.984;2023-01-28T14:30:07;13.80;;;11.13;;
17993;SDS011;9122;48.406;9.984;2023-01-28T14:33:14;18.57;;;15.17;;
17993;SDS011;9122;48.406;9.984;2023-01-28T14:35:58;16.73;;;12.67;;
17993;SDS011;9122;48.406;9.984;2023-01-28T14:38:43;17.73;;;13.40;;
17993;SDS011;9122;48.406;9.984;2023-01-28T14:41:29;15.40;;;12.30;;
17993;SDS011;9122;48.406;9.984;2023-01-28T14:44:22;17.97;;;12.10;;
17993;SDS011;9122;48.406;9.984;2023-01-28T14:50:18;16.43;;;13.63;;
17993;SDS011;9122;48.406;9.984;2023-01-28T14:53:12;17.37;;;12.47;;
17993;SDS011;9122;48.406;9.984;2023-01-28T14:59:25;16.30;;;12.43;;
17993;SDS011;9122;48.406;9.984;2023-01-28T15:02:20;15.40;;;12.37;;
17993;SDS011;9122;48.406;9.984;2023-01-28T15:05:12;15.47;;;11.73;;
17993;SDS011;9122;48.406;9.984;2023-01-28T15:07:59;18.63;;;12.43;;
17993;SDS011;9122;48.406;9.984;2023-01-28T15:10:44;18.17;;;13.17;;
17993;SDS011;9122;48.406;9.984;2023-01-28T15:13:31;16.87;;;12.77;;
17993;SDS011;9122;48.406;9.984;2023-01-28T15:16:28;17.67;;;12.73;;
17993;SDS011;9122;48.406;9.984;2023-01-28T15:19:18;20.17;;;13.87;;
17993;SDS011;9122;48.406;9.984;2023-01-28T15:22:17;17.83;;;12.93;;
17993;SDS011;9122;48.406;9.984;2023-01-28T15:25:04;18.20;;;13.93;;
17993;SDS011;9122;48.406;9.984;2023-01-28T15:27:49;19.20;;;13.83;;
17993;SDS011;9122;48.406;9.984;2023-01-28T15:30:35;17.57;;;14.33;;
17993;SDS011;9122;48.406;9.984;2023-01-28T15:33:20;16.93;;;13.20;;
17993;SDS011;9122;48.406;9.984;2023-01-28T15:36:05;17.73;;;13.70;;
17993;SDS011;9122;48.406;9.984;2023-01-28T15:38:50;17.63;;;14.00;;
17993;SDS011;9122;48.406;9.984;2023-01-28T15:41:38;21.57;;;15.77;;
17993;SDS011;9122;48.406;9.984;2023-01-28T15:44:28;17.90;;;14.80;;
17993;SDS011;9122;48.406;9.984;2023-01-28T15:50:04;18.20;;;14.17;;
17993;SDS011;9122;48.406;9.984;2023-01-28T15:52:50;21.97;;;15.67;;
17993;SDS011;9122;48.406;9.984;2023-01-28T15:58:27;22.03;;;15.07;;
17993;SDS011;9122;48.406;9.984;2023-01-28T16:01:14;26.47;;;18.33;;
17993;SDS011;9122;48.406;9.984;2023-01-28T16:04:02;23.07;;;16.47;;
17993;SDS011;9122;48.406;9.984;2023-01-28T16:06:48;21.03;;;14.57;;
17993;SDS011;9122;48.406;9.984;2023-01-28T16:09:34;21.17;;;14.70;;
17993;SDS011;9122;48.406;9.984;2023-01-28T16:12:22;19.77;;;14.90;;
17993;SDS011;9122;48.406;9.984;2023-01-28T16:15:14;21.13;;;14.73;;
17993;SDS011;9122;48.406;9.984;2023-01-28T16:18:02;21.20;;;14.63;;
17993;SDS011;9122;48.406;9.984;2023-01-28T16:20:48;21.20;;;15.50;;
17993;SDS011;9122;48.406;9.984;2023-01-28T16:23:33;21.00;;;15.83;;
17993;SDS011;9122;48.406;9.984;2023-01-28T16:26:20;21.13;;;14.63;;
17993;SDS011;9122;48.406;9.984;2023-01-28T16:29:14;20.50;;;15.77;;
17993;SDS011;9122;48.406;9.984;2023-01-28T16:32:02;20.77;;;15.30;;
17993;SDS011;9122;48.406;9.984;2023-01-28T16:34:46;19.67;;;14.87;;
17993;SDS011;9122;48.406;9.984;2023-01-28T16:37:31;18.57;;;14.23;;
17993;SDS011;9122;48.406;9.984;2023-01-28T16:40:19;20.87;;;15.70;;
17993;SDS011;9122;48.406;9.984;2023-01-28T16:43:07;21.87;;;15.70;;
17993;SDS011;9122;48.406;9.984;2023-01-28T16:45:54;18.93;;;14.20;;
17993;SDS011;9122;48.406;9.984;2023-01-28T16:48:39;20.13;;;15.20;;
17993;SDS011;9122;48.406;9.984;2023-01-28T16:51:24;19.73;;;15.10;;
17993;SDS011;9122;48.406;9.984;2023-01-28T16:54:10;20.67;;;15.50;;
17993;SDS011;9122;48.406;9.984;2023-01-28T16:56:59;19.93;;;14.33;;
17993;SDS011;9122;48.406;9.984;2023-01-28T16:59:44;21.37;;;15.80;;
17993;SDS011;9122;48.406;9.984;2023-01-28T17:02:29;18.77;;;13.77;;
17993;SDS011;9122;48.406;9.984;2023-01-28T17:05:13;21.43;;;16.13;;
17993;SDS011;9122;48.406;9.984;2023-01-28T17:07:58;20.70;;;15.47;;
17993;SDS011;9122;48.406;9.984;2023-01-28T17:10:43;19.40;;;14.53;;
17993;SDS011;9122;48.406;9.984;2023-01-28T17:13:27;20.90;;;14.83;;
17993;SDS011;9122;48.406;9.984;2023-01-28T17:16:11;20.63;;;14.03;;
17993;SDS011;9122;48.406;9.984;2023-01-28T17:18:56;17.87;;;14.00;;
17993;SDS011;9122;48.406;9.984;2023-01-28T17:21:40;20.67;;;14.13;;
17993;SDS011;9122;48.406;9.984;2023-01-28T17:24:25;23.03;;;16.93;;
17993;SDS011;9122;48.406;9.984;2023-01-28T17:27:11;19.77;;;14.73;;
17993;SDS011;9122;48.406;9.984;2023-01-28T17:29:56;19.53;;;14.93;;
17993;SDS011;9122;48.406;9.984;2023-01-28T17:32:40;19.93;;;14.87;;
17993;SDS011;9122;48.406;9.984;2023-01-28T17:35:26;18.83;;;14.63;;
17993;SDS011;9122;48.406;9.984;2023-01-28T17:38:10;26.47;;;18.40;;
17993;SDS011;9122;48.406;9.984;2023-01-28T17:40:59;18.30;;;14.13;;
17993;SDS011;9122;48.406;9.984;2023-01-28T17:43:49;17.60;;;13.40;;
17993;SDS011;9122;48.406;9.984;2023-01-28T17:46:36;17.30;;;12.83;;
17993;SDS011;9122;48.406;9.984;2023-01-28T17:49:21;18.60;;;14.23;;
17993;SDS011;9122;48.406;9.984;2023-01-28T17:52:05;22.00;;;15.87;;
17993;SDS011;9122;48.406;9.984;2023-01-28T17:54:53;24.73;;;16.10;;
17993;SDS011;9122;48.406;9.984;2023-01-28T17:57:37;18.83;;;13.77;;
17993;SDS011;9122;48.406;9.984;2023-01-28T18:00:22;17.60;;;13.00;;
17993;SDS011;9122;48.406;9.984;2023-01-28T18:03:10;18.23;;;14.07;;
17993;SDS011;9122;48.406;9.984;2023-01-28T18:05:58;18.30;;;13.50;;
17993;SDS011;9122;48.406;9.984;2023-01-28T18:08:43;16.20;;;13.50;;
17993;SDS011;9122;48.406;9.984;2023-01-28T18:11:27;18.20;;;14.73;;
17993;SDS011;9122;48.406;9.984;2023-01-28T18:14:12;14.80;;;12.80;;
17993;SDS011;9122;48.406;9.984;2023-01-28T18:16:57;20.40;;;15.87;;
17993;SDS011;9122;48.406;9.984;2023-01-28T18:19:41;23.47;;;18.40;;
17993;SDS011;9122;48.406;9.984;2023-01-28T18:22:26;21.77;;;16.10;;
17993;SDS011;9122;48.406;9.984;2023-01-28T18:25:14;17.67;;;14.63;;
17993;SDS011;9122;48.406;9.984;2023-01-28T18:28:01;17.27;;;13.33;;
17993;SDS011;9122;48.406;9.984;2023-01-28T18:30:47;17.90;;;14.00;;
17993;SDS011;9122;48.406;9.984;2023-01-28T18:33:33;13.47;;;11.80;;
17993;SDS011;9122;48.406;9.984;2023-01-28T18:36:18;14.33;;;12.70;;
17993;SDS011;9122;48.406;9.984;2023-01-28T18:39:02;13.53;;;11.40;;
17993;SDS011;9122;48.406;9.984;2023-01-28T18:41:47;13.70;;;12.30;;
17993;SDS011;9122;48.406;9.984;2023-01-28T18:44:34;15.20;;;12.20;;
17993;SDS011;9122;48.406;9.984;2023-01-28T18:47:20;13.23;;;11.43;;
17993;SDS011;9122;48.406;9.984;2023-01-28T18:50:04;15.60;;;12.70;;
17993;SDS011;9122;48.406;9.984;2023-01-28T18:52:50;14.47;;;12.23;;
17993;SDS011;9122;48.406;9.984;2023-01-28T18:55:36;13.03;;;10.83;;